Time;durP1;ratioP1;P1;durP2;ratioP2;P2;SDS_P1;SDS_P2;PMS_P1;PMS_P2;Temp;Humidity;BMP_temperature;BMP_pressure;BME280_temperature;BME280_humidity;BME280_pressure;Samples;Min_cycle;Max_cycle;Signal;HPM_P1;HPM_P2
2024/04/16 00:00:00;;;;;;;0.90;0.50;;;;;;;7.41;87.62;153262.16;5237740;27;20980;-76
2024/04/16 00:02:25;;;;;;;0.93;0.40;;;;;;;7.40;87.50;153260.84;5231936;27;20244;-76
2024/04/16 00:04:58;;;;;;;0.80;0.40;;;;;;;7.38;87.96;153255.69;5189289;27;20476;-76
2024/04/16 00:07:24;;;;;;;1.50;0.40;;;;;;;7.36;87.97;153250.50;5233379;27;20790;-77
2024/04/16 00:09:52;;;;;;;0.93;0.50;;;;;;;7.35;88.06;153249.25;5232187;27;20476;-76
2024/04/16 00:12:17;;;;;;;1.03;0.50;;;;;;;7.33;88.08;153244.03;5221191;27;20417;-76
2024/04/16 00:15:05;;;;;;;2.00;0.60;;;;;;;7.32;88.34;153240.19;5197641;27;20497;-77
2024/04/16 00:17:33;;;;;;;1.13;0.40;;;;;;;7.29;88.28;153232.44;5232173;27;20533;-77
2024/04/16 00:20:05;;;;;;;1.00;0.50;;;;;;;7.24;88.63;153219.53;5232522;27;20524;-76
2024/04/16 00:22:30;;;;;;;0.70;0.40;;;;;;;7.24;89.09;153219.53;5208659;27;20958;-76
2024/04/16 00:24:58;;;;;;;1.20;0.50;;;;;;;7.22;89.11;153215.66;5235145;27;20472;-76
2024/04/16 00:27:24;;;;;;;1.60;0.77;;;;;;;7.23;89.60;153216.91;5200156;27;20252;-77
2024/04/16 00:29:52;;;;;;;0.70;0.40;;;;;;;7.26;89.50;153225.97;5235599;27;21110;-77
2024/04/16 00:32:18;;;;;;;0.73;0.33;;;;;;;7.25;89.40;153222.13;5199068;27;20256;-75
2024/04/16 00:34:46;;;;;;;1.97;0.80;;;;;;;7.21;89.39;153213.06;5184328;27;20508;-75
2024/04/16 00:37:14;;;;;;;2.07;0.67;;;;;;;7.20;89.58;153210.47;5224336;27;20774;-75
2024/04/16 00:39:43;;;;;;;1.10;0.70;;;;;;;7.22;89.77;153215.66;5233602;27;20460;-75
2024/04/16 00:42:09;;;;;;;1.43;0.60;;;;;;;7.20;89.90;153209.22;5234959;27;20516;-76
2024/04/16 00:44:37;;;;;;;1.00;0.50;;;;;;;7.11;89.42;153187.25;5234637;27;20451;-74
2024/04/16 00:47:03;;;;;;;1.13;0.57;;;;;;;7.15;90.28;153197.56;5227785;27;20275;-75
2024/04/16 00:49:31;;;;;;;1.00;0.50;;;;;;;7.15;90.34;153197.56;5218029;27;20483;-75
2024/04/16 00:51:58;;;;;;;1.57;0.63;;;;;;;7.21;90.23;153213.06;5199881;27;20479;-75
2024/04/16 00:54:29;;;;;;;1.30;0.47;;;;;;;7.19;90.19;153207.91;5237678;27;20539;-76
2024/04/16 00:56:56;;;;;;;2.03;0.83;;;;;;;7.18;89.90;153205.31;5205648;27;20483;-75
2024/04/16 00:59:25;;;;;;;1.10;0.70;;;;;;;7.17;90.00;153201.47;5227483;27;21140;-76
2024/04/16 01:01:53;;;;;;;0.83;0.53;;;;;;;7.16;89.90;153198.84;5200732;27;20468;-75
2024/04/16 01:04:21;;;;;;;1.93;0.80;;;;;;;7.14;89.66;153195.00;5214462;27;20521;-75
2024/04/16 01:06:48;;;;;;;1.80;0.80;;;;;;;7.13;90.03;153192.41;5232433;27;20544;-75
2024/04/16 01:09:16;;;;;;;1.27;0.50;;;;;;;7.08;89.90;153179.50;5214787;27;20532;-75
2024/04/16 01:11:46;;;;;;;1.00;0.50;;;;;;;6.99;89.56;153156.25;5238498;27;21018;-74
2024/04/16 01:14:14;;;;;;;0.90;0.50;;;;;;;6.95;89.60;153145.94;5198845;27;20527;-75
2024/04/16 01:16:39;;;;;;;1.00;0.60;;;;;;;6.95;90.15;153145.94;5225693;27;20532;-76
2024/04/16 01:19:08;;;;;;;1.30;0.87;;;;;;;6.98;90.51;153153.69;5225190;27;20477;-76
2024/04/16 01:21:34;;;;;;;2.20;0.60;;;;;;;7.00;90.52;153158.84;5217733;27;20283;-76
2024/04/16 01:24:05;;;;;;;1.20;0.70;;;;;;;6.98;90.17;153153.69;5201950;27;21015;-76
2024/04/16 01:26:30;;;;;;;0.90;0.53;;;;;;;6.96;90.34;153148.53;5232549;27;20248;-75
2024/04/16 01:28:58;;;;;;;1.43;0.73;;;;;;;6.95;90.34;153145.94;5235546;27;21118;-75
2024/04/16 01:31:25;;;;;;;1.00;0.70;;;;;;;6.92;90.24;153136.88;5207559;27;20260;-76
2024/04/16 01:33:53;;;;;;;1.10;0.50;;;;;;;6.90;90.35;153133.03;5228233;27;20531;-76
2024/04/16 01:36:18;;;;;;;0.87;0.50;;;;;;;6.87;90.04;153123.97;5234067;27;20527;-76
2024/04/16 01:38:47;;;;;;;1.80;1.10;;;;;;;6.85;90.35;153118.81;5234688;27;20976;-76
2024/04/16 01:41:16;;;;;;;1.27;0.77;;;;;;;6.84;90.06;153117.53;5228982;27;20797;-75
2024/04/16 01:43:44;;;;;;;1.30;0.80;;;;;;;6.80;90.18;153105.91;5192148;27;20490;-76
2024/04/16 01:46:10;;;;;;;1.40;0.77;;;;;;;6.81;90.19;153108.47;5236127;27;20491;-75
2024/04/16 01:48:38;;;;;;;2.13;0.70;;;;;;;6.80;90.67;153105.91;5236667;27;20524;-75
2024/04/16 01:51:04;;;;;;;2.40;0.90;;;;;;;6.80;90.55;153107.22;5214841;27;20751;-76
2024/04/16 01:53:32;;;;;;;2.20;0.83;;;;;;;6.75;90.57;153094.31;5228056;27;20485;-76
2024/04/16 01:55:59;;;;;;;1.23;0.70;;;;;;;6.71;90.90;153083.97;5206172;27;20403;-76
2024/04/16 01:58:30;;;;;;;1.53;0.70;;;;;;;6.71;90.85;153085.28;5204998;27;20484;-76
2024/04/16 02:00:58;;;;;;;2.30;0.77;;;;;;;6.73;90.81;153089.13;5232524;27;20532;-76
2024/04/16 02:03:26;;;;;;;3.43;1.17;;;;;;;6.68;90.55;153076.22;5206395;27;20905;-77
2024/04/16 02:05:51;;;;;;;1.57;1.10;;;;;;;6.67;90.67;153073.66;5237647;27;21043;-77
2024/04/16 02:08:20;;;;;;;2.00;0.60;;;;;;;6.69;90.85;153080.13;5235850;27;21084;-75
2024/04/16 02:10:51;;;;;;;1.17;0.77;;;;;;;6.70;90.81;153081.38;5199153;27;20525;-78
2024/04/16 02:13:19;;;;;;;1.63;0.80;;;;;;;6.69;90.33;153078.81;5233092;27;20516;-75
2024/04/16 02:15:47;;;;;;;1.20;0.90;;;;;;;6.66;90.37;153071.06;5221604;27;21107;-75
2024/04/16 02:18:16;;;;;;;2.37;0.70;;;;;;;6.61;90.49;153058.16;5198254;27;20476;-76
2024/04/16 02:20:41;;;;;;;1.40;1.00;;;;;;;6.61;90.62;153058.16;5222519;27;20484;-76
2024/04/16 02:23:09;;;;;;;1.80;0.80;;;;;;;6.58;90.32;153051.72;5237838;27;20576;-76
2024/04/16 02:25:35;;;;;;;1.70;1.00;;;;;;;6.60;90.79;153055.56;5216687;27;20253;-76
2024/04/16 02:28:03;;;;;;;1.40;0.80;;;;;;;6.56;90.28;153046.56;5230453;27;21007;-76
2024/04/16 02:30:30;;;;;;;1.73;0.90;;;;;;;6.54;90.53;153040.13;5228989;27;20795;-76
2024/04/16 02:33:00;;;;;;;1.60;0.77;;;;;;;6.53;90.88;153037.50;5235798;27;20472;-77
2024/04/16 02:35:29;;;;;;;2.03;1.00;;;;;;;6.56;90.87;153046.56;5229973;27;20492;-76
2024/04/16 02:37:54;;;;;;;2.30;0.83;;;;;;;6.58;90.97;153051.72;5221408;27;20534;-76
2024/04/16 02:40:22;;;;;;;1.13;0.90;;;;;;;6.56;90.86;153045.25;5223217;27;20476;-76
2024/04/16 02:42:48;;;;;;;1.60;1.17;;;;;;;6.57;90.61;153047.81;5205755;27;20252;-76
2024/04/16 02:45:16;;;;;;;2.70;1.07;;;;;;;6.51;90.77;153032.38;5215197;27;20468;-76
2024/04/16 02:47:42;;;;;;;1.90;0.93;;;;;;;6.49;90.67;153028.47;5195826;27;20379;-75
2024/04/16 02:50:13;;;;;;;1.30;1.00;;;;;;;6.48;90.63;153024.63;5239146;27;21054;-76
2024/04/16 02:52:38;;;;;;;1.50;1.10;;;;;;;6.50;91.06;153029.75;5234925;27;20256;-76
2024/04/16 02:55:09;;;;;;;2.07;0.80;;;;;;;6.50;91.15;153029.75;5205447;27;20556;-75
2024/04/16 02:57:34;;;;;;;4.43;1.17;;;;;;;6.48;91.23;153025.91;5195140;27;20249;-75
2024/04/16 03:00:04;;;;;;;3.77;1.00;;;;;;;6.46;91.15;153019.47;5217833;27;20461;-75
2024/04/16 03:02:30;;;;;;;1.30;0.90;;;;;;;6.43;91.42;153011.72;5229282;27;20702;-76
2024/04/16 03:04:58;;;;;;;3.80;1.03;;;;;;;6.41;91.82;153006.53;5205218;27;20484;-75
2024/04/16 03:07:26;;;;;;;1.70;1.30;;;;;;;6.44;92.25;153014.28;5229796;27;20257;-75
2024/04/16 03:09:54;;;;;;;1.20;0.80;;;;;;;6.41;92.32;153006.53;5228989;27;20468;-75
2024/04/16 03:12:20;;;;;;;2.13;0.80;;;;;;;6.39;92.85;153001.38;5236116;27;20488;-75
2024/04/16 03:14:48;;;;;;;1.30;0.83;;;;;;;6.41;93.33;153006.53;5222333;27;20793;-76
2024/04/16 03:17:14;;;;;;;2.60;1.20;;;;;;;6.41;93.57;153006.53;5230926;27;20279;-76
2024/04/16 03:19:42;;;;;;;2.87;1.10;;;;;;;6.42;94.07;153009.13;5222757;27;20477;-75
2024/04/16 03:22:07;;;;;;;1.60;0.93;;;;;;;6.41;94.12;153006.53;5226724;27;20249;-75
2024/04/16 03:24:39;;;;;;;3.17;1.10;;;;;;;6.37;94.37;152996.22;5229625;27;20512;-76
2024/04/16 03:27:04;;;;;;;1.50;1.00;;;;;;;6.36;94.72;152994.91;5223337;27;20259;-75
2024/04/16 03:29:32;;;;;;;2.13;1.00;;;;;;;6.30;94.49;152979.41;5224497;27;20809;-76
2024/04/16 03:31:58;;;;;;;2.30;1.20;;;;;;;6.29;94.57;152975.56;5234005;27;20668;-75
2024/04/16 03:34:26;;;;;;;1.93;0.90;;;;;;;6.23;94.32;152960.06;5200945;27;20547;-75
2024/04/16 03:36:54;;;;;;;1.30;0.80;;;;;;;6.16;94.21;152943.31;5197124;27;20296;-75
2024/04/16 03:39:23;;;;;;;2.03;1.20;;;;;;;6.12;94.36;152932.97;5217875;27;20504;-77
2024/04/16 03:41:51;;;;;;;1.50;0.87;;;;;;;6.08;94.70;152923.97;5230695;27;20562;-74
2024/04/16 03:44:19;;;;;;;2.60;1.10;;;;;;;6.05;94.63;152916.25;5200006;27;20936;-76
2024/04/16 03:46:45;;;;;;;2.90;1.20;;;;;;;6.01;94.54;152905.88;5231945;27;20623;-76
2024/04/16 03:49:13;;;;;;;2.03;0.97;;;;;;;5.98;94.98;152898.16;5233882;27;20886;-75
2024/04/16 03:51:38;;;;;;;4.67;1.00;;;;;;;5.96;94.90;152893.00;5219468;27;20924;-76
2024/04/16 03:54:07;;;;;;;1.30;1.00;;;;;;;5.93;94.87;152885.25;5227064;27;20484;-75
2024/04/16 03:56:32;;;;;;;1.43;1.13;;;;;;;5.90;94.84;152876.25;5227768;27;20747;-75
2024/04/16 03:59:15;;;;;;;2.03;0.70;;;;;;;5.87;95.02;152869.81;5205891;27;20514;-76
2024/04/16 04:01:41;;;;;;;1.93;1.10;;;;;;;5.87;95.04;152868.50;5228768;27;20744;-76
2024/04/16 04:04:09;;;;;;;2.17;0.80;;;;;;;5.82;94.74;152856.88;5213553;27;20520;-76
2024/04/16 04:06:37;;;;;;;4.00;1.00;;;;;;;5.80;95.19;152851.66;5196433;27;20353;-76
2024/04/16 04:09:03;;;;;;;1.63;1.00;;;;;;;5.77;94.98;152842.69;5228169;27;20528;-76
2024/04/16 04:11:31;;;;;;;1.97;1.10;;;;;;;5.73;95.15;152833.63;5221432;27;20481;-76
2024/04/16 04:13:59;;;;;;;1.40;0.90;;;;;;;5.74;95.23;152836.22;5228948;27;20247;-76
2024/04/16 04:16:28;;;;;;;1.50;0.90;;;;;;;5.76;95.20;152840.06;5233558;27;21078;-76
2024/04/16 04:18:53;;;;;;;1.60;1.03;;;;;;;5.71;95.13;152827.19;5224610;27;20480;-76
2024/04/16 04:21:21;;;;;;;3.20;0.90;;;;;;;5.70;95.34;152825.88;5239731;27;20527;-76
2024/04/16 04:23:47;;;;;;;2.30;1.10;;;;;;;5.68;95.05;152819.44;5236966;27;20248;-76
2024/04/16 04:26:15;;;;;;;2.13;0.80;;;;;;;5.70;95.29;152824.59;5233295;27;20553;-76
2024/04/16 04:28:41;;;;;;;2.40;0.73;;;;;;;5.71;95.28;152828.47;5225310;27;20256;-75
2024/04/16 04:31:18;;;;;;;1.60;1.23;;;;;;;5.70;95.31;152825.88;5227450;27;20918;-76
2024/04/16 04:33:44;;;;;;;2.03;1.07;;;;;;;5.66;95.10;152814.28;5205815;27;20845;-76
2024/04/16 04:36:13;;;;;;;1.83;0.90;;;;;;;5.64;95.12;152809.16;5232680;27;20474;-76
2024/04/16 04:38:38;;;;;;;1.30;0.93;;;;;;;5.58;95.17;152794.97;5207933;27;20255;-76
2024/04/16 04:41:07;;;;;;;4.07;1.10;;;;;;;5.58;95.53;152794.97;5222411;27;20607;-76
2024/04/16 04:43:32;;;;;;;1.80;1.00;;;;;;;5.52;95.32;152779.47;5240797;27;20251;-76
2024/04/16 04:46:00;;;;;;;1.00;0.63;;;;;;;5.50;95.59;152774.31;5232356;27;20922;-75
2024/04/16 04:48:29;;;;;;;2.40;0.80;;;;;;;5.48;95.37;152769.19;5236234;27;20255;-75
2024/04/16 04:50:57;;;;;;;1.90;1.20;;;;;;;5.48;95.68;152770.44;5235312;27;20569;-75
2024/04/16 04:53:22;;;;;;;2.37;1.13;;;;;;;5.49;95.76;152771.72;5237113;27;20546;-76
2024/04/16 04:55:51;;;;;;;1.77;1.00;;;;;;;5.50;95.66;152774.31;5220505;27;20839;-76
2024/04/16 04:58:17;;;;;;;1.77;0.83;;;;;;;5.50;95.58;152774.31;5205721;27;20385;-75
2024/04/16 05:00:45;;;;;;;1.50;1.00;;;;;;;5.51;95.82;152776.88;5235587;27;20895;-77
2024/04/16 05:03:13;;;;;;;3.00;1.80;;;;;;;5.52;95.95;152779.47;5203250;27;21162;-77
2024/04/16 05:05:46;;;;;;;2.07;0.97;;;;;;;5.59;96.05;152797.50;5228483;27;20478;-77
2024/04/16 05:08:11;;;;;;;1.43;0.90;;;;;;;5.65;96.17;152811.69;5224002;27;20518;-77
2024/04/16 05:10:42;;;;;;;2.73;1.30;;;;;;;5.66;96.38;152814.28;5225973;27;20536;-76
2024/04/16 05:13:08;;;;;;;2.40;1.17;;;;;;;5.67;96.06;152818.16;5220185;27;20249;-77
2024/04/16 05:15:37;;;;;;;1.47;0.90;;;;;;;5.71;96.06;152827.19;5215843;27;20579;-76
2024/04/16 05:18:03;;;;;;;2.20;0.90;;;;;;;5.73;96.15;152833.63;5222443;27;20536;-77
2024/04/16 05:20:33;;;;;;;2.60;1.10;;;;;;;5.76;96.09;152841.38;5222439;27;20565;-77
2024/04/16 05:23:05;;;;;;;2.80;1.70;;;;;;;5.80;96.38;152851.66;5221637;27;20523;-77
2024/04/16 05:25:30;;;;;;;2.30;1.13;;;;;;;5.83;96.46;152859.41;5224593;27;20531;-76
2024/04/16 05:27:58;;;;;;;2.90;1.30;;;;;;;5.87;96.40;152868.50;5223014;27;20481;-76
2024/04/16 05:30:24;;;;;;;2.47;1.10;;;;;;;5.88;96.47;152872.34;5223024;27;20252;-77
2024/04/16 05:32:53;;;;;;;1.97;1.23;;;;;;;5.94;96.41;152887.84;5220423;27;21050;-76
2024/04/16 05:35:18;;;;;;;4.70;1.10;;;;;;;5.96;96.44;152893.00;5223938;27;20279;-76
2024/04/16 05:37:46;;;;;;;1.53;1.13;;;;;;;6.01;96.37;152904.66;5219949;27;20480;-76
2024/04/16 05:40:16;;;;;;;1.83;1.53;;;;;;;6.02;96.35;152908.50;5222948;27;20370;-77
2024/04/16 05:42:44;;;;;;;3.07;1.70;;;;;;;6.05;96.07;152916.25;5193538;27;20475;-75
2024/04/16 05:45:10;;;;;;;2.50;1.87;;;;;;;6.12;96.22;152932.97;5224229;27;20467;-75
2024/04/16 05:47:38;;;;;;;2.50;1.80;;;;;;;6.38;96.94;153000.06;5221278;27;20536;-75
2024/04/16 05:50:04;;;;;;;2.80;2.10;;;;;;;6.72;96.89;153087.81;5226460;27;20252;-75
2024/04/16 05:52:33;;;;;;;2.87;1.90;;;;;;;7.10;96.30;153184.66;5223556;27;20472;-74
2024/04/16 05:54:58;;;;;;;4.60;1.87;;;;;;;7.46;95.39;153276.34;5191721;27;20544;-73
2024/04/16 05:57:29;;;;;;;4.93;1.90;;;;;;;7.76;94.09;153352.53;5219842;27;20508;-75
2024/04/16 05:59:55;;;;;;;2.50;1.20;;;;;;;8.03;92.36;153422.31;5222800;27;20271;-74
2024/04/16 06:02:23;;;;;;;4.90;1.27;;;;;;;8.15;91.14;153452.03;5221294;27;20468;-75
2024/04/16 06:04:48;;;;;;;2.90;1.80;;;;;;;8.16;89.63;153454.59;5193082;27;20929;-75
2024/04/16 06:07:16;;;;;;;2.10;1.50;;;;;;;8.08;88.45;153435.22;5218321;27;20479;-76
2024/04/16 06:09:42;;;;;;;2.97;1.50;;;;;;;8.20;88.56;153464.97;5203380;27;20720;-75
2024/04/16 06:12:11;;;;;;;2.27;1.50;;;;;;;8.36;87.90;153507.69;5222300;27;20524;-76
2024/04/16 06:14:39;;;;;;;1.63;1.23;;;;;;;8.38;87.55;153512.84;5188348;27;20287;-76
2024/04/16 06:17:07;;;;;;;3.00;1.30;;;;;;;8.32;86.90;153497.31;5220080;27;20477;-76
2024/04/16 06:19:33;;;;;;;4.17;1.50;;;;;;;8.25;86.48;153479.19;5217589;27;20591;-76
2024/04/16 06:22:01;;;;;;;3.07;1.37;;;;;;;8.23;86.80;153474.03;5220985;27;20481;-76
2024/04/16 06:24:26;;;;;;;2.70;1.40;;;;;;;8.18;86.32;153461.06;5222684;27;20248;-76
2024/04/16 06:26:55;;;;;;;2.43;1.03;;;;;;;8.09;86.51;153436.53;5223035;27;20880;-76
2024/04/16 06:29:20;;;;;;;2.17;1.13;;;;;;;8.03;86.41;153421.00;5221563;27;20287;-76
2024/04/16 06:31:51;;;;;;;6.13;2.10;;;;;;;7.96;86.43;153404.22;5191733;27;20884;-76
2024/04/16 06:34:17;;;;;;;3.30;1.20;;;;;;;7.94;86.63;153399.09;5221732;27;20252;-76
2024/04/16 06:36:45;;;;;;;3.70;1.43;;;;;;;7.95;86.67;153401.63;5220219;27;20471;-76
2024/04/16 06:39:11;;;;;;;2.70;1.70;;;;;;;8.02;87.21;153418.44;5219167;27;20584;-75
2024/04/16 06:41:39;;;;;;;8.50;1.77;;;;;;;8.03;86.81;153421.00;5223369;27;20551;-76
2024/04/16 06:44:04;;;;;;;1.50;1.23;;;;;;;8.40;87.21;153516.69;5221408;27;20240;-76
2024/04/16 06:46:33;;;;;;;3.53;1.30;;;;;;;8.82;86.77;153623.97;5187684;27;20502;-76
2024/04/16 06:49:01;;;;;;;2.80;1.40;;;;;;;9.32;85.65;153753.31;5221504;27;20252;-76
2024/04/16 06:51:29;;;;;;;2.30;1.37;;;;;;;9.77;83.25;153869.75;5218422;27;20495;-76
2024/04/16 06:53:55;;;;;;;2.97;1.50;;;;;;;10.11;81.31;153956.44;5189813;27;20472;-76
2024/04/16 06:59:16;;;;;;;2.00;1.00;;;;;;;10.11;76.61;153955.19;5213353;27;20889;-89
2024/04/16 07:01:41;;;;;;;2.67;1.20;;;;;;;9.96;76.63;153916.31;5238134;27;20665;-89
2024/04/16 07:04:13;;;;;;;5.13;1.20;;;;;;;9.77;75.78;153869.75;5224006;27;20490;-89
2024/04/16 07:06:39;;;;;;;2.00;1.60;;;;;;;9.64;76.16;153836.09;5204996;27;20877;-89
2024/04/16 07:09:07;;;;;;;3.17;1.63;;;;;;;9.57;77.42;153816.69;5237704;27;20507;-89
2024/04/16 07:11:32;;;;;;;2.73;1.10;;;;;;;9.51;77.38;153802.47;5207313;27;20719;-86
2024/04/16 07:14:01;;;;;;;3.97;1.57;;;;;;;9.53;77.57;153807.63;5208415;27;20589;-89
2024/04/16 07:16:26;;;;;;;3.13;1.40;;;;;;;9.54;76.92;153810.25;5217347;27;20252;-89
2024/04/16 07:18:54;;;;;;;3.07;1.27;;;;;;;9.85;76.84;153887.88;5234745;27;20585;-90
2024/04/16 07:21:23;;;;;;;3.40;1.10;;;;;;;9.93;74.80;153908.59;5235938;27;20809;-89
2024/04/16 07:23:51;;;;;;;2.10;1.17;;;;;;;9.92;75.17;153906.00;5235593;27;20889;-88
2024/04/16 07:26:16;;;;;;;2.53;1.20;;;;;;;9.85;74.85;153889.16;5235544;27;20479;-89
2024/04/16 07:28:45;;;;;;;3.50;1.20;;;;;;;9.73;74.51;153859.41;5234674;27;20531;-89
2024/04/16 07:31:10;;;;;;;3.47;1.30;;;;;;;9.70;75.08;153850.34;5235701;27;20294;-90
2024/04/16 07:33:39;;;;;;;2.60;1.17;;;;;;;9.63;73.67;153833.53;5237072;27;21115;-89
2024/04/16 07:36:08;;;;;;;2.23;1.20;;;;;;;9.78;74.31;153871.03;5219478;27;20286;-88
2024/04/16 07:38:39;;;;;;;2.80;1.47;;;;;;;9.95;73.71;153913.75;5194419;27;20859;-88
2024/04/16 07:41:05;;;;;;;4.57;1.20;;;;;;;9.98;73.74;153921.53;5236163;27;20530;-88
2024/04/16 07:43:33;;;;;;;2.33;1.13;;;;;;;9.98;72.21;153921.53;5236083;27;20487;-89
2024/04/16 07:45:59;;;;;;;1.20;0.87;;;;;;;10.08;69.86;153948.72;5234876;27;20672;-89
2024/04/16 07:48:27;;;;;;;3.00;0.90;;;;;;;10.16;68.15;153969.47;5193361;27;20608;-89
2024/04/16 07:50:52;;;;;;;3.23;1.27;;;;;;;10.41;68.27;154032.88;5235095;27;20799;-86
2024/04/16 07:53:21;;;;;;;3.03;1.10;;;;;;;10.67;68.51;154100.19;5235602;27;20483;-90
2024/04/16 07:55:56;;;;;;;2.63;1.20;;;;;;;10.85;66.56;154146.84;5220821;27;20575;-89
2024/04/16 07:58:24;;;;;;;4.03;0.90;;;;;;;10.93;65.86;154167.53;5220607;27;21038;-90
2024/04/16 08:00:50;;;;;;;2.20;0.70;;;;;;;10.95;64.91;154172.75;5230372;27;20944;-90
2024/04/16 08:03:18;;;;;;;2.37;1.40;;;;;;;10.93;63.39;154167.53;5236111;27;20484;-90
2024/04/16 08:05:44;;;;;;;1.93;1.20;;;;;;;10.84;64.01;154142.94;5216079;27;20546;-91
2024/04/16 08:08:14;;;;;;;1.50;0.90;;;;;;;10.70;61.82;154106.66;5218970;27;20488;-91
2024/04/16 08:10:40;;;;;;;3.57;0.97;;;;;;;10.61;61.82;154084.69;5179001;27;20632;-91
2024/04/16 08:13:11;;;;;;;3.10;1.07;;;;;;;10.52;63.47;154061.34;5233406;27;20468;-90
2024/04/16 08:15:36;;;;;;;2.20;0.90;;;;;;;10.36;62.93;154021.22;5190131;27;20264;-91
2024/04/16 08:18:06;;;;;;;3.70;1.10;;;;;;;10.28;63.73;153999.22;5234309;27;20475;-90
2024/04/16 08:20:31;;;;;;;2.23;0.90;;;;;;;10.25;63.62;153991.44;5236851;27;20357;-91
2024/04/16 08:23:00;;;;;;;3.00;0.73;;;;;;;10.31;65.63;154007.00;5223384;27;20839;-91
2024/04/16 08:25:26;;;;;;;6.30;0.90;;;;;;;10.34;62.38;154014.75;5240023;27;20963;-91
2024/04/16 08:27:54;;;;;;;1.90;1.20;;;;;;;10.39;62.39;154027.69;5219577;27;20472;-91
2024/04/16 08:30:22;;;;;;;1.87;0.90;;;;;;;10.40;61.95;154030.31;5235012;27;20526;-91
2024/04/16 08:32:50;;;;;;;1.77;0.97;;;;;;;10.48;64.23;154051.03;5234778;27;20476;-90
2024/04/16 08:35:24;;;;;;;2.60;0.70;;;;;;;10.60;64.56;154080.78;5232532;27;20531;-91
2024/04/16 08:37:53;;;;;;;2.07;0.90;;;;;;;10.83;65.32;154141.63;5233464;27;20483;-91
2024/04/16 08:40:19;;;;;;;3.40;0.90;;;;;;;10.93;61.54;154166.28;5221846;27;20562;-91
2024/04/16 08:42:47;;;;;;;2.20;0.93;;;;;;;11.06;61.77;154198.63;5236527;27;20834;-93
2024/04/16 08:45:13;;;;;;;2.63;0.80;;;;;;;11.05;58.46;154196.03;5228554;27;20587;-92
2024/04/16 08:47:45;;;;;;;4.13;0.80;;;;;;;11.20;59.45;154234.94;5237647;27;20483;-93
2024/04/16 08:50:11;;;;;;;3.27;1.07;;;;;;;11.11;59.05;154212.88;5184236;27;20543;-94
2024/04/16 08:52:39;;;;;;;2.50;1.30;;;;;;;11.14;59.06;154220.66;5234583;27;20586;-95
2024/04/16 08:55:06;;;;;;;3.07;1.20;;;;;;;11.12;59.03;154214.19;5235836;27;20491;-94
2024/04/16 08:57:35;;;;;;;3.97;1.10;;;;;;;11.05;58.86;154196.03;5260090;27;20464;-92
2024/04/16 09:00:01;;;;;;;1.57;0.73;;;;;;;10.99;58.31;154181.78;5220633;27;20833;-91
2024/04/16 09:02:31;;;;;;;1.10;0.70;;;;;;;11.02;59.32;154190.84;5240186;27;20547;-92
2024/04/16 09:05:02;;;;;;;3.33;0.93;;;;;;;11.11;60.23;154211.59;5221988;27;20248;-90
2024/04/16 09:07:32;;;;;;;1.73;0.70;;;;;;;11.22;61.03;154240.09;5237362;27;20487;-91
2024/04/16 09:09:58;;;;;;;1.37;0.83;;;;;;;11.34;59.86;154272.47;5186255;27;20492;-94
2024/04/16 09:12:26;;;;;;;2.70;0.87;;;;;;;11.45;59.69;154300.97;5212311;27;20551;-92
2024/04/16 09:14:55;;;;;;;1.67;0.87;;;;;;;11.57;59.30;154332.06;5215635;27;20378;-94
2024/04/16 09:17:20;;;;;;;2.10;0.87;;;;;;;11.62;58.52;154343.75;5247903;27;20796;-94
2024/04/16 09:19:48;;;;;;;2.07;0.70;;;;;;;11.63;57.65;154346.31;5215380;27;20568;-92
2024/04/16 09:22:17;;;;;;;1.20;0.70;;;;;;;11.57;56.95;154332.06;5242765;27;20236;-93
2024/04/16 09:24:46;;;;;;;1.37;0.93;;;;;;;11.51;57.32;154316.53;5244307;27;20567;-94
2024/04/16 09:27:11;;;;;;;2.90;0.90;;;;;;;11.46;58.58;154303.53;5244191;27;20452;-94
2024/04/16 09:29:39;;;;;;;3.37;0.90;;;;;;;11.48;58.63;154308.75;5213797;27;20475;-94
2024/04/16 09:32:05;;;;;;;2.70;1.10;;;;;;;11.54;58.44;154323.03;5243085;27;20727;-93
2024/04/16 09:34:34;;;;;;;1.20;0.70;;;;;;;11.62;57.42;154345.00;5240237;27;20492;-94
2024/04/16 09:37:00;;;;;;;1.63;0.80;;;;;;;11.69;56.42;154360.63;5215489;27;20252;-95
2024/04/16 09:39:30;;;;;;;3.40;0.87;;;;;;;11.65;56.09;154351.50;5243297;27;20516;-94
2024/04/16 09:41:57;;;;;;;2.30;0.80;;;;;;;11.66;56.93;154354.09;5214506;27;20789;-94
2024/04/16 09:44:27;;;;;;;2.40;1.03;;;;;;;11.68;58.39;154359.28;5215292;27;20558;-95
2024/04/16 09:46:54;;;;;;;2.20;0.90;;;;;;;11.62;55.24;154343.75;5242662;27;20459;-95
2024/04/16 09:49:24;;;;;;;4.20;1.10;;;;;;;11.54;56.70;154323.03;5242437;27;20468;-95
2024/04/16 09:51:49;;;;;;;1.97;0.77;;;;;;;11.49;56.37;154310.06;5215444;27;20584;-95
2024/04/16 09:54:18;;;;;;;1.00;0.70;;;;;;;11.41;59.55;154289.34;5242876;27;20491;-95
2024/04/16 09:56:47;;;;;;;4.63;0.60;;;;;;;11.25;58.50;154247.88;5244726;27;20229;-94
2024/04/16 09:59:16;;;;;;;1.63;0.80;;;;;;;11.22;58.08;154240.09;5214024;27;20484;-94
2024/04/16 10:01:43;;;;;;;1.70;0.90;;;;;;;11.20;58.76;154234.94;5243902;27;20975;-95
2024/04/16 10:04:13;;;;;;;3.27;0.50;;;;;;;11.19;59.40;154232.31;5238906;27;20479;-95
2024/04/16 10:06:40;;;;;;;1.80;0.83;;;;;;;11.22;59.42;154240.09;5243147;27;20452;-96
2024/04/16 10:09:09;;;;;;;1.57;0.80;;;;;;;11.27;59.34;154253.03;5215065;27;20528;-95
2024/04/16 10:11:35;;;;;;;1.00;0.60;;;;;;;11.28;59.58;154256.91;5215723;27;20444;-95
2024/04/16 10:14:06;;;;;;;1.60;0.90;;;;;;;11.33;58.44;154268.59;5188603;27;20476;-96
2024/04/16 10:16:33;;;;;;;2.30;0.60;;;;;;;11.41;58.32;154289.34;5216354;27;20452;-96
2024/04/16 10:19:06;;;;;;;1.93;0.80;;;;;;;11.46;58.99;154302.28;5187506;27;20553;-95
2024/04/16 10:21:37;;;;;;;1.97;0.63;;;;;;;11.45;58.05;154300.97;5187789;27;20447;-96
2024/04/16 10:24:10;;;;;;;2.23;0.83;;;;;;;11.46;58.81;154302.28;5216474;27;20480;-95
2024/04/16 10:26:36;;;;;;;1.20;0.63;;;;;;;11.38;58.50;154281.56;5187114;27;20440;-93
2024/04/16 10:29:14;;;;;;;1.60;0.97;;;;;;;11.32;59.24;154267.31;5186373;27;20536;-94
2024/04/16 10:31:40;;;;;;;1.50;0.80;;;;;;;11.23;59.14;154242.66;5221678;27;20536;-96
2024/04/16 10:34:09;;;;;;;4.30;0.83;;;;;;;11.22;59.78;154240.09;5214630;27;20475;-95
2024/04/16 10:36:35;;;;;;;0.90;0.50;;;;;;;11.24;59.59;154245.25;5246315;27;20519;-96
2024/04/16 10:39:12;;;;;;;2.00;0.83;;;;;;;11.21;59.67;154238.78;5248989;27;20472;-96
2024/04/16 10:41:37;;;;;;;1.40;0.80;;;;;;;11.17;60.48;154228.44;5216051;27;20452;-95
2024/04/16 10:44:09;;;;;;;1.20;0.60;;;;;;;11.15;60.22;154221.94;5188256;27;20507;-95
2024/04/16 10:46:35;;;;;;;1.77;0.60;;;;;;;11.16;60.62;154224.53;5246000;27;20578;-95
2024/04/16 10:49:05;;;;;;;4.10;0.87;;;;;;;11.19;61.38;154233.63;5245752;27;20483;-95
2024/04/16 10:51:31;;;;;;;1.10;0.80;;;;;;;11.24;60.62;154246.56;5190020;27;20451;-96
2024/04/16 10:54:07;;;;;;;1.13;0.70;;;;;;;11.34;62.26;154271.16;5188177;27;20520;-96
2024/04/16 10:56:35;;;;;;;1.37;0.60;;;;;;;11.42;62.03;154291.91;5216347;27;20904;-96
2024/04/16 10:59:12;;;;;;;3.43;0.70;;;;;;;11.48;61.52;154307.47;5244828;27;20484;-95
2024/04/16 11:01:38;;;;;;;1.10;0.70;;;;;;;11.56;60.24;154329.50;5216752;27;20455;-95
2024/04/16 11:04:12;;;;;;;0.87;0.40;;;;;;;11.59;59.32;154335.97;5218682;27;20463;-95
2024/04/16 11:06:40;;;;;;;1.03;0.70;;;;;;;11.64;59.64;154348.94;5192156;27;21171;-96
2024/04/16 11:09:10;;;;;;;2.20;0.50;;;;;;;11.68;58.47;154359.28;5217568;27;20467;-96
2024/04/16 11:11:39;;;;;;;1.40;0.73;;;;;;;11.74;60.81;154374.88;5245656;27;20456;-96
2024/04/16 11:14:12;;;;;;;3.03;0.73;;;;;;;11.73;58.93;154371.03;5245466;27;20464;-96
2024/04/16 11:16:40;;;;;;;1.87;0.73;;;;;;;11.73;59.03;154372.28;5218590;27;20551;-96
2024/04/16 11:19:09;;;;;;;1.40;0.60;;;;;;;11.75;59.62;154377.50;5243454;27;20510;-95
2024/04/16 11:21:35;;;;;;;2.00;0.57;;;;;;;11.83;60.79;154398.22;5242128;27;20836;-95
2024/04/16 11:24:05;;;;;;;1.23;0.60;;;;;;;11.80;59.15;154390.44;5242486;27;20516;-95
2024/04/16 11:26:31;;;;;;;0.90;0.40;;;;;;;11.73;59.52;154371.03;5213525;27;20576;-95
2024/04/16 11:28:59;;;;;;;2.50;0.60;;;;;;;11.74;60.31;154374.88;5242335;27;20479;-96
2024/04/16 11:31:28;;;;;;;1.57;0.50;;;;;;;11.77;60.41;154382.66;5214525;27;20270;-94
2024/04/16 11:33:58;;;;;;;0.80;0.40;;;;;;;11.80;61.10;154390.44;5243084;27;20475;-95
2024/04/16 11:36:23;;;;;;;1.10;0.40;;;;;;;11.90;61.96;154415.06;5215184;27;20519;-94